Terminal Aerodrome Forecast
Issued by NWS

Home | Current Version | Previous Version | Text Only | Print | Product List | Glossary On
Versions: 1 2 3 4 5 6 7 8 9 10 11 12 13 14 15 16 17 18 19 20 21 22 23 24 25 26
000
FTUS43 KMQT 221100
TAFCMX
TAF
KCMX 221132Z 2212/2312 08006KT P6SM OVC020
     FM221700 10006KT P6SM VCSH OVC020
     FM222000 10009KT P6SM VCSH OVC025
     FM230300 09005KT P6SM VCSH OVC015=

USA.gov is the U.S. government's official web portal to all federal, state and local government web resources and services.